This is the latest recevied weather packets stored in our database for station/object CT1ETE. If no packets are shown the sender has not sent any weather packets the latest 10 day(s).
| Time | Temp. | Humidity | Pressure | Rain* | Wind** | Luminosity | Snow |
|---|---|---|---|---|---|---|---|
| 1778107081 | 12.22° C | 80% | 1010.9 hPa | 0 mm | - | - | - |
| 1778106179 | 12.22° C | 80% | 1011 hPa | 0 mm | - | - | - |
| 1778102573 | 12.78° C | 80% | 1011.2 hPa | 0 mm | - | - | - |
| 1778099387 | 13.33° C | 76% | 1011.2 hPa | 0 mm | - | - | - |
| 1778092670 | 15.56° C | 70% | 1010.9 hPa | 0 mm | - | - | - |
| 1778076468 | 19.44° C | 49% | 1012.4 hPa | 0 mm | - | - | - |
| 1778065664 | 16.67° C | 59% | 1014 hPa | 0.25 mm | - | - | - |
| 1778062963 | 15.56° C | 66% | 1014.3 hPa | 0 mm | - | - | - |
| 1778060263 | 15° C | 71% | 1014.4 hPa | 0 mm | - | - | - |
| 1778044945 | 8.89° C | 81% | 1014.1 hPa | 0 mm | - | - | - |
| 1778039533 | 9.44° C | 84% | 1014.3 hPa | 0 mm | - | - | - |
| 1778038633 | 9.44° C | 84% | 1014.4 hPa | 0 mm | - | - | - |
| 1778036829 | 9.44° C | 85% | 1014.4 hPa | 0 mm | - | - | - |
| 1778034545 | 10° C | 86% | 1014.7 hPa | 0 mm | - | - | - |
| 1778033221 | 10° C | 86% | 1014.8 hPa | 0 mm | - | - | - |
| 1778021515 | 10.56° C | 86% | 1016.1 hPa | 0 mm | - | - | - |
| 1778019715 | 11.11° C | 85% | 1016.3 hPa | 0 mm | - | - | - |
| 1778018813 | 11.11° C | 84% | 1016.2 hPa | 0 mm | - | - | - |
| 1777999904 | 14.44° C | 75% | 1015.4 hPa | 0 mm | - | - | - |
| 1777993125 | 13.89° C | 84% | 1015.7 hPa | 0.51 mm | - | - | - |
| 1777986396 | 15° C | 69% | 1015.8 hPa | 0 mm | - | - | - |
| 1777984592 | 15.56° C | 66% | 1015.8 hPa | 0 mm | - | - | - |
| 1777979187 | 14.44° C | 70% | 1016.4 hPa | 0 mm | - | - | - |
| 1777976488 | 13.89° C | 75% | 1016.4 hPa | 0 mm | - | - | - |
| 1777971080 | 12.22° C | 81% | 1016.4 hPa | 0 mm | - | - | - |
* Rain latest hour (hover to see other rain measurements)
** Current wind speed in m/s (hover to see current wind gust speed)